Time;durP1;ratioP1;P1;durP2;ratioP2;P2;SDS_P1;SDS_P2;PMS_P1;PMS_P2;Temp;Humidity;BMP_temperature;BMP_pressure;BME280_temperature;BME280_humidity;BME280_pressure;Samples;Min_cycle;Max_cycle;Signal;HPM_P1;HPM_P2
2022/02/16 00:00:02;;;;;;;33.67;16.00;;;;;;;-1.58;100.00;100543.69;1836263;78;21045;-71
2022/02/16 00:02:31;;;;;;;;;;;;;;;-1.62;100.00;100540.59;1837540;78;21029;-70
2022/02/16 00:04:58;;;;;;;28.40;14.05;;;;;;;-1.62;100.00;100536.72;1836388;78;20128;-71
2022/02/16 00:07:27;;;;;;;33.28;15.68;;;;;;;-1.61;100.00;100530.73;1836247;78;21034;-72
2022/02/16 00:09:54;;;;;;;30.40;14.75;;;;;;;-1.59;100.00;100530.73;1836270;78;21034;-71
2022/02/16 00:12:20;;;;;;;32.25;14.53;;;;;;;-1.60;100.00;100527.30;1836016;78;21525;-71
2022/02/16 00:14:47;;;;;;;41.48;16.05;;;;;;;-1.57;100.00;100531.21;1836218;78;21018;-70
2022/02/16 00:17:13;;;;;;;34.10;15.78;;;;;;;-1.53;100.00;100528.28;1836633;78;21077;-71
2022/02/16 00:19:40;;;;;;;31.42;14.63;;;;;;;-1.53;100.00;100525.70;1836520;78;20994;-71
2022/02/16 00:22:08;;;;;;;36.53;14.98;;;;;;;-1.52;100.00;100521.86;1836280;78;21207;-71
2022/02/16 00:24:35;;;;;;;28.05;14.20;;;;;;;-1.50;100.00;100522.73;1831398;78;21554;-70
2022/02/16 00:27:03;;;;;;;33.35;15.48;;;;;;;-1.51;100.00;100508.52;1827804;78;20998;-71
2022/02/16 00:29:30;;;;;;;31.57;15.35;;;;;;;-1.48;100.00;100508.56;1828010;78;21030;-71
2022/02/16 00:31:57;;;;;;;32.40;15.60;;;;;;;-1.45;100.00;100512.91;1827901;78;21080;-70
2022/02/16 00:34:25;;;;;;;42.50;17.70;;;;;;;-1.45;100.00;100507.74;1828140;78;21046;-71
2022/02/16 00:36:52;;;;;;;34.63;15.72;;;;;;;-1.46;100.00;100503.44;1828093;78;21030;-72
2022/02/16 00:39:18;;;;;;;102.50;32.15;;;;;;;-1.49;100.00;100499.95;1828088;78;21033;-72
2022/02/16 00:41:44;;;;;;;62.40;21.53;;;;;;;-1.51;100.00;100504.21;1827862;78;20974;-71
2022/02/16 00:44:12;;;;;;;43.83;17.40;;;;;;;-1.51;100.00;100499.05;1827892;78;21017;-73
2022/02/16 00:46:38;;;;;;;42.70;19.67;;;;;;;-1.55;100.00;100492.51;1828068;78;21085;-71
2022/02/16 00:49:04;;;;;;;49.40;19.20;;;;;;;-1.57;100.00;100499.36;1827748;78;21014;-71
2022/02/16 00:51:31;;;;;;;40.28;17.00;;;;;;;-1.62;100.00;100492.81;1828195;78;21081;-70
2022/02/16 00:53:59;;;;;;;34.65;16.75;;;;;;;-1.67;100.00;100496.17;1828018;78;21022;-71
2022/02/16 00:56:27;;;;;;;30.95;15.08;;;;;;;-1.71;100.00;100493.94;1827542;78;21014;-70
2022/02/16 00:58:54;;;;;;;33.73;15.55;;;;;;;-1.77;100.00;100479.22;1827778;78;21047;-71
2022/02/16 01:01:22;;;;;;;34.48;15.90;;;;;;;-1.82;100.00;100481.25;1838601;77;21573;-71
2022/02/16 01:03:50;;;;;;;27.73;13.90;;;;;;;-1.88;100.00;100479.86;1846847;77;21087;-72
2022/02/16 01:06:17;;;;;;;36.33;14.87;;;;;;;-1.95;100.00;100481.02;1846973;77;21033;-70
2022/02/16 01:08:43;;;;;;;30.77;15.15;;;;;;;-2.01;100.00;100488.63;1846968;77;21005;-71
2022/02/16 01:11:10;;;;;;;35.78;16.45;;;;;;;-2.07;100.00;100490.22;1846933;77;21703;-71
2022/02/16 01:13:37;;;;;;;37.75;14.95;;;;;;;-2.15;100.00;100481.91;1846977;77;21052;-70
2022/02/16 01:16:05;;;;;;;29.32;14.33;;;;;;;-2.16;100.00;100484.48;1846940;77;21506;-70
2022/02/16 01:18:31;;;;;;;30.68;16.80;;;;;;;-2.17;100.00;100482.30;1846692;77;21056;-70
2022/02/16 01:20:59;;;;;;;30.25;14.87;;;;;;;-2.15;100.00;100488.36;1847020;77;21006;-72
2022/02/16 01:23:25;;;;;;;36.42;16.97;;;;;;;-2.16;100.00;100474.16;1846851;76;21872;-69
2022/02/16 01:25:52;;;;;;;35.83;15.68;;;;;;;-2.17;100.00;100474.98;1846825;77;21017;-70
2022/02/16 01:28:39;;;;;;;29.77;15.65;;;;;;;-2.17;100.00;100475.84;1848288;77;20998;-71
2022/02/16 01:31:06;;;;;;;41.58;17.20;;;;;;;-2.17;100.00;100472.41;1849599;77;21001;-70
2022/02/16 01:33:34;;;;;;;34.03;16.93;;;;;;;-2.17;100.00;100469.82;1849714;77;20962;-70
2022/02/16 01:36:01;;;;;;;75.10;25.23;;;;;;;-2.17;100.00;100469.39;1847819;77;21158;-71
2022/02/16 01:38:28;;;;;;;51.88;18.67;;;;;;;-2.20;100.00;100463.32;1847350;77;20958;-71
2022/02/16 01:40:56;;;;;;;34.70;14.70;;;;;;;-2.22;100.00;100458.55;1846702;77;21576;-72
2022/02/16 01:43:23;;;;;;;39.70;17.15;;;;;;;-2.23;100.00;100461.95;1846579;77;21040;-72
2022/02/16 01:45:51;;;;;;;39.83;18.52;;;;;;;-2.25;100.00;100445.59;1823294;77;21048;-71
2022/02/16 01:48:19;;;;;;;29.12;14.43;;;;;;;-2.24;100.00;100448.61;1845993;77;21222;-71
2022/02/16 01:50:47;;;;;;;37.65;17.80;;;;;;;-2.26;100.00;100445.12;1846780;77;21057;-70
2022/02/16 01:53:14;;;;;;;31.23;13.93;;;;;;;-2.25;100.00;100441.72;1819129;78;21163;-70
2022/02/16 01:55:44;;;;;;;26.12;12.85;;;;;;;-2.23;100.00;100440.02;1828719;78;21041;-71
2022/02/16 01:58:11;;;;;;;32.33;14.65;;;;;;;-2.21;100.00;100431.89;1784550;78;21407;-71
2022/02/16 02:00:48;;;;;;;29.27;14.00;;;;;;;-2.15;100.00;100435.89;1830937;77;21018;-71
2022/02/16 02:03:15;;;;;;;28.10;13.38;;;;;;;-2.11;100.00;100440.28;1846707;77;21481;-70
2022/02/16 02:05:50;;;;;;;29.37;14.65;;;;;;;-2.07;100.00;100445.95;1847165;77;21482;-70
2022/02/16 02:08:14;;;;;;;30.17;15.53;;;;;;;-2.00;100.00;100445.62;1846553;76;21478;-71
2022/02/16 02:10:41;;;;;;;32.65;15.98;;;;;;;-1.97;100.00;100445.70;1846918;77;21091;-70
2022/02/16 02:13:09;;;;;;;35.35;16.05;;;;;;;-1.91;100.00;100435.07;1846916;77;21921;-71
2022/02/16 02:15:43;;;;;;;27.00;12.55;;;;;;;-1.88;100.00;100434.69;1846879;77;21212;-70
2022/02/16 02:18:16;;;;;;;33.48;17.77;;;;;;;-1.84;100.00;100433.87;1846103;77;21017;-70
2022/02/16 02:20:42;;;;;;;28.30;14.73;;;;;;;-1.77;100.00;100439.59;1847003;77;21477;-70
2022/02/16 02:23:11;;;;;;;35.85;18.98;;;;;;;-1.74;100.00;100436.66;1846726;77;21170;-70
2022/02/16 02:25:52;;;;;;;44.33;20.23;;;;;;;-1.69;100.00;100438.89;1846830;77;21113;-70
2022/02/16 02:28:22;;;;;;;50.30;18.23;;;;;;;-1.66;100.00;100436.78;1846940;77;21096;-70
2022/02/16 02:30:48;;;;;;;49.45;20.45;;;;;;;-1.64;100.00;100435.09;1846937;77;21727;-70
2022/02/16 02:33:16;;;;;;;48.83;21.05;;;;;;;-1.58;100.00;100430.05;1846922;77;21092;-70
2022/02/16 02:35:42;;;;;;;75.70;26.23;;;;;;;-1.56;100.00;100432.23;1847036;77;21057;-70
2022/02/16 02:38:08;;;;;;;53.65;20.52;;;;;;;-1.53;100.00;100424.96;1823605;77;22066;-71
2022/02/16 02:40:36;;;;;;;41.83;18.92;;;;;;;-1.52;100.00;100425.00;1846766;77;21072;-71
2022/02/16 02:43:06;;;;;;;44.73;19.17;;;;;;;-1.50;100.00;100423.28;1846661;77;21079;-71
2022/02/16 02:45:34;;;;;;;48.90;22.00;;;;;;;-1.46;100.00;100421.62;1846925;77;21558;-70
2022/02/16 02:48:02;;;;;;;47.62;21.73;;;;;;;-1.42;100.00;100418.69;1796881;77;21080;-71
2022/02/16 02:50:29;;;;;;;49.75;21.20;;;;;;;-1.42;100.00;100423.43;1846859;77;22086;-70
2022/02/16 02:52:56;;;;;;;42.50;19.80;;;;;;;-1.42;100.00;100422.13;1843909;77;21529;-71
2022/02/16 02:55:23;;;;;;;55.15;20.65;;;;;;;-1.40;100.00;100418.27;1791192;79;21077;-70
2022/02/16 02:57:50;;;;;;;65.70;23.50;;;;;;;-1.37;100.00;100420.92;1813528;78;21073;-71
2022/02/16 03:00:16;;;;;;;51.92;22.45;;;;;;;-1.34;100.00;100410.63;1813834;78;21483;-70
2022/02/16 03:02:44;;;;;;;71.95;26.55;;;;;;;-1.32;100.00;100415.39;1813496;78;21128;-71
2022/02/16 03:05:11;;;;;;;131.80;34.10;;;;;;;-1.33;100.00;100417.55;1802344;79;21061;-70
2022/02/16 03:07:40;;;;;;;67.90;23.80;;;;;;;-1.30;100.00;100416.29;1802207;79;21487;-71
2022/02/16 03:10:08;;;;;;;134.07;35.68;;;;;;;-1.31;100.00;100415.86;1813611;78;21100;-71
2022/02/16 03:12:35;;;;;;;69.65;26.00;;;;;;;-1.30;100.00;100415.00;1813670;79;21197;-71
2022/02/16 03:15:04;;;;;;;58.87;22.98;;;;;;;-1.29;100.00;100419.30;1813649;79;21037;-70
2022/02/16 03:17:34;;;;;;;111.75;33.23;;;;;;;-1.30;100.00;100413.28;1813373;78;21061;-70
2022/02/16 03:20:01;;;;;;;64.60;25.12;;;;;;;-1.28;100.00;100413.31;1813643;79;21098;-71
2022/02/16 03:22:29;;;;;;;84.72;27.98;;;;;;;-1.29;100.00;100415.03;1813759;79;21077;-71
2022/02/16 03:24:55;;;;;;;79.67;25.60;;;;;;;-1.25;100.00;100417.66;1813575;78;21018;-71
2022/02/16 03:27:23;;;;;;;92.02;29.77;;;;;;;-1.22;100.00;100417.69;1813556;79;21613;-70
2022/02/16 03:30:08;;;;;;;62.30;24.52;;;;;;;-1.19;100.00;100409.58;1814090;78;21244;-71
2022/02/16 03:32:37;;;;;;;65.45;23.45;;;;;;;-1.18;100.00;100404.84;1813463;78;21072;-71
2022/02/16 03:35:05;;;;;;;63.83;25.52;;;;;;;-1.15;100.00;100411.37;1802919;79;21549;-70
2022/02/16 03:37:32;;;;;;;52.15;22.30;;;;;;;-1.13;100.00;100408.39;1813837;78;21068;-70
2022/02/16 03:40:00;;;;;;;52.78;20.90;;;;;;;-1.09;100.00;100399.80;1814321;79;21803;-70
2022/02/16 03:42:26;;;;;;;104.45;32.65;;;;;;;-1.07;100.00;100400.70;1813635;79;21045;-70
2022/02/16 03:44:53;;;;;;;63.90;24.60;;;;;;;-1.03;100.00;100398.18;1820699;77;21036;-71
2022/02/16 03:47:20;;;;;;;52.88;21.95;;;;;;;-1.02;100.00;100399.47;1846838;77;20994;-70
2022/02/16 03:49:47;;;;;;;55.12;24.32;;;;;;;-1.00;100.00;100399.50;1846476;77;21055;-71
2022/02/16 03:52:15;;;;;;;49.83;23.75;;;;;;;-0.96;100.00;100397.42;1846674;77;21028;-72
2022/02/16 03:54:42;;;;;;;46.25;21.17;;;;;;;-0.96;100.00;100400.00;1819573;77;21552;-72
2022/02/16 03:57:09;;;;;;;48.92;21.35;;;;;;;-0.94;100.00;100400.89;1813672;79;21077;-70
2022/02/16 03:59:36;;;;;;;59.75;25.50;;;;;;;-0.93;100.00;100389.69;1813554;78;21589;-70
2022/02/16 04:02:13;;;;;;;48.98;20.37;;;;;;;-0.93;100.00;100384.52;1813004;78;21029;-71
2022/02/16 04:04:40;;;;;;;48.13;20.97;;;;;;;-0.93;100.00;100381.94;1813994;79;22141;-69
2022/02/16 04:07:07;;;;;;;42.17;20.02;;;;;;;-0.93;100.00;100382.80;1814948;79;20946;-70
2022/02/16 04:09:34;;;;;;;40.63;19.12;;;;;;;-0.90;100.00;100382.86;1816424;79;21502;-71
2022/02/16 04:12:03;;;;;;;58.95;22.67;;;;;;;-0.87;100.00;100379.45;1814122;78;21033;-71
2022/02/16 04:14:31;;;;;;;44.23;20.85;;;;;;;-0.86;100.00;100376.86;1823318;77;21096;-70
2022/02/16 04:16:58;;;;;;;35.60;15.95;;;;;;;-0.82;100.00;100377.78;1846897;77;21599;-70
2022/02/16 04:19:24;;;;;;;31.97;16.27;;;;;;;-0.79;100.00;100375.22;1847118;77;20994;-70
2022/02/16 04:21:51;;;;;;;30.82;15.53;;;;;;;-0.78;100.00;100369.22;1847259;77;21596;-69
2022/02/16 04:24:17;;;;;;;31.42;15.43;;;;;;;-0.75;100.00;100365.38;1847002;77;21072;-71
2022/02/16 04:26:44;;;;;;;33.75;16.60;;;;;;;-0.74;100.00;100368.39;1847049;77;21490;-71
2022/02/16 04:29:11;;;;;;;37.75;15.53;;;;;;;-0.73;100.00;100367.55;1847013;77;21808;-70
2022/02/16 04:31:39;;;;;;;29.70;14.87;;;;;;;-0.70;100.00;100363.70;1846928;77;21587;-71
2022/02/16 04:34:07;;;;;;;37.75;15.38;;;;;;;-0.67;100.00;100357.70;1847055;77;21049;-70
2022/02/16 04:36:35;;;;;;;33.15;15.00;;;;;;;-0.65;100.00;100360.73;1847014;77;21012;-71
2022/02/16 04:39:04;;;;;;;29.98;14.75;;;;;;;-0.64;100.00;100354.73;1847226;77;21056;-71
2022/02/16 04:41:32;;;;;;;39.05;16.30;;;;;;;-0.60;100.00;100358.64;1846968;77;21258;-70
2022/02/16 04:44:00;;;;;;;31.80;15.20;;;;;;;-0.57;100.00;100361.28;1823598;77;20993;-71
2022/02/16 04:46:27;;;;;;;32.40;16.73;;;;;;;-0.57;100.00;100359.99;1846947;77;21517;-70
2022/02/16 04:48:53;;;;;;;40.48;18.25;;;;;;;-0.56;100.00;100360.42;1846727;77;21025;-69
2022/02/16 04:51:20;;;;;;;55.40;21.42;;;;;;;-0.53;100.00;100360.45;1846941;77;21033;-71
2022/02/16 04:53:47;;;;;;;40.60;19.23;;;;;;;-0.51;100.00;100360.05;1847265;77;21503;-72
2022/02/16 04:56:14;;;;;;;38.10;17.32;;;;;;;-0.50;100.00;100359.21;1846753;77;20997;-71
2022/02/16 04:58:41;;;;;;;36.68;17.77;;;;;;;-0.47;100.00;100357.51;1847296;77;21550;-71
2022/02/16 05:01:08;;;;;;;39.33;16.73;;;;;;;-0.43;100.00;100361.02;1847034;77;21048;-72
2022/02/16 05:03:35;;;;;;;45.08;18.60;;;;;;;-0.42;100.00;100352.38;1846992;77;21482;-71
2022/02/16 05:06:03;;;;;;;37.58;16.62;;;;;;;-0.39;100.00;100355.03;1847059;77;21135;-69
2022/02/16 05:08:30;;;;;;;29.55;14.33;;;;;;;-0.36;100.00;100356.78;1846889;77;21084;-71
2022/02/16 05:10:56;;;;;;;52.03;21.70;;;;;;;-0.37;100.00;100359.77;1847582;77;20994;-69
2022/02/16 05:13:26;;;;;;;26.77;12.80;;;;;;;-0.35;100.00;100355.48;1829450;77;20997;-71
2022/02/16 05:15:54;;;;;;;29.50;14.45;;;;;;;-0.35;100.00;100354.62;1847213;77;21107;-71
2022/02/16 05:18:22;;;;;;;33.33;15.63;;;;;;;-0.33;100.00;100361.98;1846842;77;21126;-71
2022/02/16 05:20:56;;;;;;;38.85;15.83;;;;;;;-0.35;100.00;100359.36;1847088;77;21485;-71
2022/02/16 05:23:24;;;;;;;33.25;16.80;;;;;;;-0.38;100.00;100364.95;1846872;77;21035;-70
2022/02/16 05:25:54;;;;;;;29.07;14.68;;;;;;;-0.38;100.00;100367.10;1846053;77;22138;-71
2022/02/16 05:28:21;;;;;;;43.83;16.82;;;;;;;-0.36;100.00;100371.88;1846738;77;21065;-70
2022/02/16 05:30:48;;;;;;;47.80;19.65;;;;;;;-0.36;100.00;100370.58;1846974;77;21153;-71
2022/02/16 05:33:16;;;;;;;36.25;17.95;;;;;;;-0.34;100.00;100365.00;1846745;77;21029;-71
2022/02/16 05:35:45;;;;;;;40.08;16.90;;;;;;;-0.32;100.00;100367.58;1846864;77;21576;-71
2022/02/16 05:38:11;;;;;;;43.42;18.98;;;;;;;-0.30;100.00;100373.24;1846763;77;21604;-72
2022/02/16 05:40:42;;;;;;;32.95;15.58;;;;;;;-0.29;100.00;100376.26;1846922;77;21025;-72
2022/02/16 05:43:13;;;;;;;39.58;19.42;;;;;;;-0.27;100.00;100381.03;1846945;77;26706;-70
2022/02/16 05:45:41;;;;;;;35.50;16.97;;;;;;;-0.23;100.00;100389.28;1846621;77;21560;-71
2022/02/16 05:48:10;;;;;;;39.53;17.65;;;;;;;-0.20;100.00;100388.44;1846502;77;21045;-72
2022/02/16 05:50:39;;;;;;;33.48;15.58;;;;;;;-0.25;100.00;100387.09;1846706;77;21033;-70
2022/02/16 05:53:05;;;;;;;31.85;16.23;;;;;;;-0.28;100.00;100381.86;1841962;77;21011;-71
2022/02/16 05:55:32;;;;;;;37.65;17.73;;;;;;;-0.31;100.00;100368.91;1812008;79;21399;-71
2022/02/16 05:57:59;;;;;;;35.45;16.73;;;;;;;-0.35;100.00;100369.71;1811880;79;21030;-71
2022/02/16 06:00:26;;;;;;;40.83;18.55;;;;;;;-0.35;100.00;100364.53;1812001;79;21024;-72
2022/02/16 06:02:53;;;;;;;39.08;18.75;;;;;;;-0.35;100.00;100363.67;1812342;79;20975;-70
2022/02/16 06:05:20;;;;;;;38.08;17.40;;;;;;;-0.37;100.00;100359.77;1811985;79;21039;-71
2022/02/16 06:07:48;;;;;;;48.42;21.82;;;;;;;-0.35;100.00;100360.66;1812087;79;21547;-71
2022/02/16 06:10:14;;;;;;;41.70;20.62;;;;;;;-0.32;100.00;100362.00;1811953;79;21107;-70
2022/02/16 06:12:41;;;;;;;36.55;18.85;;;;;;;-0.29;100.00;100360.73;1811924;79;21039;-71
2022/02/16 06:15:09;;;;;;;41.05;17.92;;;;;;;-0.26;100.00;100359.46;1811954;79;21014;-72
2022/02/16 06:17:38;;;;;;;43.05;19.25;;;;;;;-0.19;100.00;100359.53;1813281;79;21051;-71
2022/02/16 06:20:07;;;;;;;35.63;17.07;;;;;;;-0.14;100.00;100357.42;1813862;79;21525;-71
2022/02/16 06:22:36;;;;;;;46.30;19.50;;;;;;;-0.07;100.00;100358.35;1812187;79;21560;-71
2022/02/16 06:25:05;;;;;;;50.23;20.50;;;;;;;-0.04;100.00;100355.81;1811800;79;21027;-70
2022/02/16 06:27:34;;;;;;;40.10;17.60;;;;;;;0.00;100.00;100355.00;1812379;79;21160;-72
2022/02/16 06:30:07;;;;;;;41.13;17.75;;;;;;;0.02;100.00;100354.56;1812122;79;21078;-72
2022/02/16 06:32:37;;;;;;;43.83;21.48;;;;;;;0.05;100.00;100352.02;1811670;79;22132;-71
2022/02/16 06:35:04;;;;;;;49.20;21.42;;;;;;;0.03;100.00;100345.95;1811951;79;21035;-71
2022/02/16 06:37:32;;;;;;;47.17;20.57;;;;;;;0.02;100.00;100348.52;1812707;79;21515;-71
2022/02/16 06:39:59;;;;;;;37.75;18.35;;;;;;;0.03;100.00;100340.77;1815769;79;21100;-70
2022/02/16 06:42:26;;;;;;;60.43;23.75;;;;;;;0.04;100.00;100336.02;1815750;79;21007;-71
2022/02/16 06:44:53;;;;;;;39.42;18.57;;;;;;;0.06;100.00;100336.91;1816606;79;21143;-71
2022/02/16 06:47:21;;;;;;;40.60;19.85;;;;;;;0.06;100.00;100338.20;1812501;79;21085;-72
2022/02/16 06:49:48;;;;;;;45.38;20.60;;;;;;;0.01;100.00;100328.67;1812107;79;21035;-72
2022/02/16 06:52:14;;;;;;;35.23;17.52;;;;;;;0.03;100.00;100327.83;1812499;79;21046;-71
2022/02/16 06:54:42;;;;;;;54.80;24.67;;;;;;;0.02;100.00;100329.95;1813755;79;20982;-72
2022/02/16 06:57:08;;;;;;;48.45;21.77;;;;;;;0.06;100.00;100320.08;1814205;79;21800;-71
2022/02/16 06:59:41;;;;;;;47.00;19.23;;;;;;;0.12;100.00;100319.28;1812767;78;21549;-71
2022/02/16 07:02:09;;;;;;;48.33;22.55;;;;;;;0.13;100.00;100317.98;1813890;78;21018;-72
2022/02/16 07:04:37;;;;;;;54.95;24.82;;;;;;;0.16;100.00;100311.55;1813538;78;21625;-70
2022/02/16 07:07:04;;;;;;;117.85;39.08;;;;;;;0.18;100.00;100320.61;1813974;78;21014;-70
2022/02/16 07:09:31;;;;;;;104.00;37.63;;;;;;;0.22;100.00;100320.22;1813883;79;21338;-72
2022/02/16 07:11:59;;;;;;;50.28;21.90;;;;;;;0.26;100.00;100324.57;1813987;78;21479;-72
2022/02/16 07:14:27;;;;;;;58.10;25.08;;;;;;;0.30;100.00;100316.84;1814277;79;21062;-72
2022/02/16 07:16:56;;;;;;;48.52;19.98;;;;;;;0.39;100.00;100314.31;1814216;78;21080;-71
2022/02/16 07:19:25;;;;;;;49.48;23.52;;;;;;;0.40;100.00;100302.22;1813775;79;21030;-72
2022/02/16 07:21:55;;;;;;;67.27;27.90;;;;;;;0.42;100.00;100305.69;1802543;79;22147;-72
2022/02/16 07:24:22;;;;;;;49.90;21.65;;;;;;;0.45;100.00;100301.81;1813673;78;21627;-70
2022/02/16 07:26:51;;;;;;;57.20;23.32;;;;;;;0.46;100.00;100293.20;1816813;78;21048;-72
2022/02/16 07:29:19;;;;;;;51.63;21.40;;;;;;;0.46;100.00;100291.91;1819309;78;21810;-71
2022/02/16 07:31:47;;;;;;;44.03;20.70;;;;;;;0.40;100.00;100293.16;1819744;78;21064;-72
2022/02/16 07:34:13;;;;;;;53.23;20.12;;;;;;;0.33;100.00;100291.37;1819607;78;21480;-72
2022/02/16 07:36:41;;;;;;;49.55;21.48;;;;;;;0.28;100.00;100294.37;1820112;78;21006;-72
2022/02/16 07:39:08;;;;;;;46.92;20.68;;;;;;;0.23;100.00;100293.45;1819727;78;21032;-71
2022/02/16 07:41:35;;;;;;;49.00;21.77;;;;;;;0.23;100.00;100284.37;1822249;78;21010;-72
2022/02/16 07:44:04;;;;;;;50.28;20.95;;;;;;;0.23;100.00;100278.80;1821376;78;21072;-71
2022/02/16 07:46:33;;;;;;;50.43;19.95;;;;;;;0.20;100.00;100282.64;1821861;78;21464;-71
2022/02/16 07:48:59;;;;;;;48.50;20.37;;;;;;;0.19;100.00;100286.09;1801792;78;21124;-72
2022/02/16 07:51:30;;;;;;;45.88;20.77;;;;;;;0.20;100.00;100279.61;1818532;78;21072;-71
2022/02/16 07:54:14;;;;;;;55.60;22.90;;;;;;;0.15;100.00;100281.30;1818494;78;21041;-71
2022/02/16 07:56:42;;;;;;;55.33;22.62;;;;;;;0.05;100.00;100258.80;1819576;78;21572;-71
2022/02/16 07:59:09;;;;;;;49.45;22.22;;;;;;;0.20;100.00;100277.02;1819847;78;21081;-73
2022/02/16 08:01:35;;;;;;;64.60;22.70;;;;;;;0.22;100.00;100282.66;1819517;78;21022;-72
2022/02/16 08:04:17;;;;;;;56.13;23.15;;;;;;;0.25;100.00;100278.78;1819656;78;21010;-72
2022/02/16 08:06:47;;;;;;;56.15;24.15;;;;;;;0.26;100.00;100283.12;1819574;78;21018;-71
2022/02/16 08:09:15;;;;;;;59.95;23.70;;;;;;;0.30;100.00;100279.67;1819709;78;21545;-71
2022/02/16 08:11:43;;;;;;;55.03;24.87;;;;;;;0.37;100.00;100278.89;1819584;78;21113;-72
2022/02/16 08:14:10;;;;;;;53.68;23.65;;;;;;;0.40;100.00;100278.91;1819763;78;21244;-71
2022/02/16 08:16:47;;;;;;;45.05;22.32;;;;;;;0.40;100.00;100267.24;1818258;78;21021;-71
2022/02/16 08:19:13;;;;;;;55.83;24.90;;;;;;;0.41;100.00;100271.15;1799296;78;21081;-71
2022/02/16 08:21:42;;;;;;;57.17;24.63;;;;;;;0.42;100.00;100266.83;1799241;78;21076;-72
2022/02/16 08:24:11;;;;;;;54.45;22.00;;;;;;;0.41;100.00;100263.78;1819392;78;21913;-71
2022/02/16 08:26:38;;;;;;;70.30;24.65;;;;;;;0.38;100.00;100259.89;1830105;77;21028;-72
2022/02/16 08:29:07;;;;;;;57.20;23.47;;;;;;;0.36;100.00;100257.70;1852966;77;21060;-71
2022/02/16 08:31:34;;;;;;;51.40;24.27;;;;;;;0.39;100.00;100252.53;1852735;77;21076;-71
2022/02/16 08:34:15;;;;;;;70.25;23.57;;;;;;;0.41;100.00;100257.30;1853094;77;26650;-72
2022/02/16 08:36:47;;;;;;;49.70;22.93;;;;;;;0.44;100.00;100258.64;1851819;77;21565;-72
2022/02/16 08:39:13;;;;;;;55.88;23.32;;;;;;;0.43;100.00;100258.19;1852636;77;21037;-71
2022/02/16 08:41:39;;;;;;;61.53;25.35;;;;;;;0.39;100.00;100257.72;1852773;77;21529;-71
2022/02/16 08:44:06;;;;;;;53.98;25.35;;;;;;;0.38;100.00;100247.79;1852701;77;21092;-71
2022/02/16 08:46:34;;;;;;;63.78;26.90;;;;;;;0.40;100.00;100250.41;1852657;77;21032;-71
2022/02/16 08:49:01;;;;;;;57.00;24.40;;;;;;;0.39;100.00;100249.55;1853046;77;21810;-70
2022/02/16 08:51:29;;;;;;;53.17;23.38;;;;;;;0.39;100.00;100248.65;1852631;77;20997;-71
2022/02/16 08:53:56;;;;;;;66.60;27.20;;;;;;;0.34;100.00;100252.94;1835333;77;21039;-72
2022/02/16 08:56:23;;;;;;;60.92;25.52;;;;;;;0.35;100.00;100246.48;1817564;78;21030;-72
2022/02/16 08:58:50;;;;;;;64.65;26.45;;;;;;;0.38;100.00;100250.81;1817623;78;21049;-70
2022/02/16 09:01:16;;;;;;;74.70;26.93;;;;;;;0.39;100.00;100244.36;1817588;78;21544;-71
2022/02/16 09:03:43;;;;;;;83.03;27.65;;;;;;;0.44;100.00;100243.09;1817798;78;21008;-71
2022/02/16 09:06:10;;;;;;;60.60;24.60;;;;;;;0.49;100.00;100243.12;1817773;78;21559;-72
2022/02/16 09:08:37;;;;;;;55.05;22.98;;;;;;;0.51;100.00;100250.48;1817458;78;21018;-71
2022/02/16 09:11:04;;;;;;;61.28;24.32;;;;;;;0.53;100.00;100252.22;1817348;78;22266;-71
2022/02/16 09:13:32;;;;;;;54.23;24.10;;;;;;;0.57;100.00;100249.19;1817599;78;21066;-71
2022/02/16 09:15:59;;;;;;;48.40;22.45;;;;;;;0.57;100.00;100234.50;1817227;78;21043;-72
2022/02/16 09:18:25;;;;;;;61.40;24.23;;;;;;;0.58;100.00;100234.95;1817510;78;21058;-71
2022/02/16 09:20:54;;;;;;;57.70;25.40;;;;;;;0.60;100.00;100235.84;1817608;78;21507;-71
2022/02/16 09:23:20;;;;;;;50.40;21.70;;;;;;;0.63;100.00;100231.09;1818005;78;21085;-72
2022/02/16 09:25:46;;;;;;;53.55;23.05;;;;;;;0.65;100.00;100236.30;1817517;78;21081;-71
2022/02/16 09:28:13;;;;;;;63.73;23.65;;;;;;;0.68;100.00;100231.12;1808738;78;20992;-71
2022/02/16 09:30:39;;;;;;;78.57;25.97;;;;;;;0.70;100.00;100229.41;1808875;77;21041;-72
2022/02/16 09:33:06;;;;;;;42.73;21.07;;;;;;;0.67;100.00;100222.89;1813982;79;21017;-70
2022/02/16 09:35:32;;;;;;;44.80;20.20;;;;;;;0.69;100.00;100227.66;1813760;79;21072;-72
2022/02/16 09:37:58;;;;;;;56.10;24.37;;;;;;;0.71;100.00;100228.09;1813947;79;21088;-72
2022/02/16 09:40:25;;;;;;;47.05;21.52;;;;;;;0.72;100.00;100216.02;1813408;79;21010;-71
2022/02/16 09:42:55;;;;;;;57.95;25.50;;;;;;;0.70;100.00;100208.23;1813635;78;22015;-71
2022/02/16 09:45:21;;;;;;;50.43;24.57;;;;;;;0.75;100.00;100212.14;1813396;78;21029;-72
2022/02/16 09:47:48;;;;;;;48.98;23.07;;;;;;;0.78;100.00;100208.25;1813714;79;21060;-71
2022/02/16 09:50:15;;;;;;;50.73;24.25;;;;;;;0.80;100.00;100209.13;1813457;79;21090;-72
2022/02/16 09:52:43;;;;;;;55.23;24.43;;;;;;;0.87;100.00;100210.88;1813542;79;21028;-71
2022/02/16 09:55:10;;;;;;;55.28;24.35;;;;;;;0.91;100.00;100199.66;1813488;79;21119;-72
2022/02/16 09:57:37;;;;;;;55.88;23.65;;;;;;;0.98;100.00;100199.25;1813820;79;21045;-71
2022/02/16 10:00:07;;;;;;;50.30;24.00;;;;;;;1.07;100.00;100199.72;1813414;79;21048;-72
2022/02/16 10:02:40;;;;;;;47.27;23.65;;;;;;;1.15;100.00;100190.21;1813843;78;21048;-71
2022/02/16 10:05:08;;;;;;;50.33;23.47;;;;;;;1.22;100.00;100185.06;1813373;78;21076;-70
2022/02/16 10:07:41;;;;;;;64.53;27.48;;;;;;;1.30;100.00;100185.06;1813506;77;21534;-71
2022/02/16 10:10:15;;;;;;;53.00;25.65;;;;;;;1.31;100.00;100179.03;1813620;79;21103;-70
2022/02/16 10:12:44;;;;;;;43.92;22.13;;;;;;;1.37;100.00;100180.31;1813593;79;21095;-70
2022/02/16 10:15:12;;;;;;;49.85;22.62;;;;;;;1.45;100.00;100161.73;1813337;78;21128;-71
2022/02/16 10:17:39;;;;;;;45.92;22.13;;;;;;;1.51;100.00;100158.70;1813627;78;21432;-71
2022/02/16 10:20:09;;;;;;;40.10;19.98;;;;;;;1.55;100.00;100153.52;1813573;79;21024;-71
2022/02/16 10:22:45;;;;;;;;;;;;;;;1.60;100.00;100152.22;1816359;77;21037;-72
2022/02/16 10:25:22;;;;;;;45.35;22.52;;;;;;;1.58;100.00;100139.66;1813421;79;20517;-72
2022/02/16 10:28:12;;;;;;;48.87;22.87;;;;;;;1.56;100.00;100143.55;1813534;78;21486;-70
2022/02/16 10:31:02;;;;;;;46.25;21.55;;;;;;;1.52;100.00;100131.87;1813626;78;21024;-71
2022/02/16 10:33:33;;;;;;;46.13;24.80;;;;;;;1.48;100.00;100133.62;1813867;78;21076;-71
2022/02/16 10:36:16;;;;;;;48.17;22.52;;;;;;;1.52;100.00;100127.98;1774194;80;21053;-71
2022/02/16 10:41:52;;;;;;;46.60;22.20;;;;;;;1.73;100.00;100130.58;1814388;79;22704;-72
2022/02/16 10:44:22;;;;;;;48.80;21.37;;;;;;;1.76;100.00;100119.32;1787452;80;21051;-72
2022/02/16 10:47:04;;;;;;;41.35;21.95;;;;;;;1.83;100.00;100124.49;1787680;80;22143;-71
2022/02/16 10:49:32;;;;;;;53.70;24.45;;;;;;;1.85;100.00;100116.27;1787274;80;20989;-71
2022/02/16 10:52:18;;;;;;;46.80;21.62;;;;;;;1.86;100.00;100110.63;1787342;80;20977;-72
2022/02/16 10:54:58;;;;;;;48.13;23.57;;;;;;;1.90;100.00;100116.27;1760975;80;21062;-71
2022/02/16 10:57:24;;;;;;;46.40;21.62;;;;;;;1.81;100.00;100110.64;1756647;81;21590;-72
2022/02/16 10:59:51;;;;;;;42.90;22.17;;;;;;;1.82;100.00;100102.00;1756192;81;21502;-72
2022/02/16 11:02:21;;;;;;;52.45;23.77;;;;;;;1.84;100.00;100096.78;1756507;81;21089;-72
2022/02/16 11:04:47;;;;;;;41.88;21.52;;;;;;;1.85;100.00;100099.39;1756389;81;21570;-70
2022/02/16 11:07:21;;;;;;;42.25;21.05;;;;;;;1.91;100.00;100097.23;1726185;83;21167;-71
2022/02/16 11:09:52;;;;;;;38.92;20.20;;;;;;;1.92;100.00;100094.19;1706978;83;21023;-71
2022/02/16 11:12:18;;;;;;;43.75;22.87;;;;;;;1.96;100.00;100093.33;1726336;83;21581;-72